sensor_id;sensor_type;location;lat;lon;timestamp;P1;durP1;ratioP1;P2;durP2;ratioP2
4198;SDS011;2113;50.946;14.610;2022-10-16T00:01:29;21.73;;;16.83;;
4198;SDS011;2113;50.946;14.610;2022-10-16T00:03:59;20.00;;;15.43;;
4198;SDS011;2113;50.946;14.610;2022-10-16T00:06:30;24.40;;;16.88;;
4198;SDS011;2113;50.946;14.610;2022-10-16T00:08:58;22.15;;;16.40;;
4198;SDS011;2113;50.946;14.610;2022-10-16T00:11:28;26.88;;;18.55;;
4198;SDS011;2113;50.946;14.610;2022-10-16T00:14:00;23.02;;;18.38;;
4198;SDS011;2113;50.946;14.610;2022-10-16T00:16:31;26.75;;;17.75;;
4198;SDS011;2113;50.946;14.610;2022-10-16T00:19:01;20.48;;;16.48;;
4198;SDS011;2113;50.946;14.610;2022-10-16T00:21:30;21.85;;;18.90;;
4198;SDS011;2113;50.946;14.610;2022-10-16T00:24:18;23.50;;;18.50;;
4198;SDS011;2113;50.946;14.610;2022-10-16T00:26:49;22.75;;;17.13;;
4198;SDS011;2113;50.946;14.610;2022-10-16T00:29:17;22.63;;;15.65;;
4198;SDS011;2113;50.946;14.610;2022-10-16T00:31:47;21.92;;;17.17;;
4198;SDS011;2113;50.946;14.610;2022-10-16T00:34:16;20.08;;;16.30;;
4198;SDS011;2113;50.946;14.610;2022-10-16T00:36:44;23.92;;;16.67;;
4198;SDS011;2113;50.946;14.610;2022-10-16T00:39:13;22.33;;;16.73;;
4198;SDS011;2113;50.946;14.610;2022-10-16T00:41:41;24.67;;;16.90;;
4198;SDS011;2113;50.946;14.610;2022-10-16T00:47:13;21.13;;;16.10;;
4198;SDS011;2113;50.946;14.610;2022-10-16T00:49:47;21.13;;;15.02;;
4198;SDS011;2113;50.946;14.610;2022-10-16T00:52:19;19.88;;;15.50;;
4198;SDS011;2113;50.946;14.610;2022-10-16T00:54:48;21.00;;;17.23;;
4198;SDS011;2113;50.946;14.610;2022-10-16T00:57:18;19.63;;;15.98;;
4198;SDS011;2113;50.946;14.610;2022-10-16T00:59:47;18.67;;;15.55;;
4198;SDS011;2113;50.946;14.610;2022-10-16T01:02:17;19.00;;;14.95;;
4198;SDS011;2113;50.946;14.610;2022-10-16T01:04:46;18.98;;;15.32;;
4198;SDS011;2113;50.946;14.610;2022-10-16T01:07:19;19.80;;;15.40;;
4198;SDS011;2113;50.946;14.610;2022-10-16T01:10:03;20.73;;;15.43;;
4198;SDS011;2113;50.946;14.610;2022-10-16T01:12:40;22.55;;;17.17;;
4198;SDS011;2113;50.946;14.610;2022-10-16T01:15:15;20.13;;;15.45;;
4198;SDS011;2113;50.946;14.610;2022-10-16T01:17:56;21.35;;;15.60;;
4198;SDS011;2113;50.946;14.610;2022-10-16T01:20:29;20.65;;;15.80;;
4198;SDS011;2113;50.946;14.610;2022-10-16T01:26:10;18.98;;;15.07;;
4198;SDS011;2113;50.946;14.610;2022-10-16T01:28:51;19.10;;;16.10;;
4198;SDS011;2113;50.946;14.610;2022-10-16T01:31:24;19.13;;;14.68;;
4198;SDS011;2113;50.946;14.610;2022-10-16T01:33:56;21.55;;;14.80;;
4198;SDS011;2113;50.946;14.610;2022-10-16T01:36:31;18.08;;;14.68;;
4198;SDS011;2113;50.946;14.610;2022-10-16T01:39:05;17.17;;;13.50;;
4198;SDS011;2113;50.946;14.610;2022-10-16T01:41:38;18.50;;;14.70;;
4198;SDS011;2113;50.946;14.610;2022-10-16T01:44:10;15.93;;;13.43;;
4198;SDS011;2113;50.946;14.610;2022-10-16T01:46:43;16.45;;;14.13;;
4198;SDS011;2113;50.946;14.610;2022-10-16T01:49:15;18.75;;;14.88;;
4198;SDS011;2113;50.946;14.610;2022-10-16T01:51:47;16.70;;;13.88;;
4198;SDS011;2113;50.946;14.610;2022-10-16T01:54:20;18.00;;;14.57;;
4198;SDS011;2113;50.946;14.610;2022-10-16T01:56:51;15.77;;;12.10;;
4198;SDS011;2113;50.946;14.610;2022-10-16T01:59:21;14.40;;;11.98;;
4198;SDS011;2113;50.946;14.610;2022-10-16T02:01:54;16.40;;;13.20;;
4198;SDS011;2113;50.946;14.610;2022-10-16T02:04:27;15.93;;;13.18;;
4198;SDS011;2113;50.946;14.610;2022-10-16T02:06:59;17.80;;;13.93;;
4198;SDS011;2113;50.946;14.610;2022-10-16T02:09:29;18.55;;;12.70;;
4198;SDS011;2113;50.946;14.610;2022-10-16T02:11:59;15.02;;;11.20;;
4198;SDS011;2113;50.946;14.610;2022-10-16T02:14:32;17.20;;;11.40;;
4198;SDS011;2113;50.946;14.610;2022-10-16T02:17:01;15.13;;;11.38;;
4198;SDS011;2113;50.946;14.610;2022-10-16T02:19:29;14.02;;;12.13;;
4198;SDS011;2113;50.946;14.610;2022-10-16T02:21:59;12.93;;;10.70;;
4198;SDS011;2113;50.946;14.610;2022-10-16T02:24:32;15.45;;;11.68;;
4198;SDS011;2113;50.946;14.610;2022-10-16T02:27:09;14.30;;;12.13;;
4198;SDS011;2113;50.946;14.610;2022-10-16T02:29:44;12.88;;;10.20;;
4198;SDS011;2113;50.946;14.610;2022-10-16T02:32:17;15.43;;;11.50;;
4198;SDS011;2113;50.946;14.610;2022-10-16T02:34:51;13.07;;;11.02;;
4198;SDS011;2113;50.946;14.610;2022-10-16T02:37:21;14.25;;;12.05;;
4198;SDS011;2113;50.946;14.610;2022-10-16T02:39:50;12.23;;;10.05;;
4198;SDS011;2113;50.946;14.610;2022-10-16T02:42:19;15.98;;;12.43;;
4198;SDS011;2113;50.946;14.610;2022-10-16T02:44:49;16.08;;;12.63;;
4198;SDS011;2113;50.946;14.610;2022-10-16T02:47:17;17.95;;;11.60;;
4198;SDS011;2113;50.946;14.610;2022-10-16T02:49:46;14.90;;;10.43;;
4198;SDS011;2113;50.946;14.610;2022-10-16T02:52:14;14.88;;;11.80;;
4198;SDS011;2113;50.946;14.610;2022-10-16T02:54:43;12.55;;;9.85;;
4198;SDS011;2113;50.946;14.610;2022-10-16T02:57:11;14.30;;;10.60;;
4198;SDS011;2113;50.946;14.610;2022-10-16T02:59:40;14.43;;;10.90;;
4198;SDS011;2113;50.946;14.610;2022-10-16T03:02:09;15.88;;;11.35;;
4198;SDS011;2113;50.946;14.610;2022-10-16T03:04:38;14.10;;;9.52;;
4198;SDS011;2113;50.946;14.610;2022-10-16T03:07:07;12.65;;;9.73;;
4198;SDS011;2113;50.946;14.610;2022-10-16T03:09:35;15.30;;;10.52;;
4198;SDS011;2113;50.946;14.610;2022-10-16T03:12:04;14.90;;;11.27;;
4198;SDS011;2113;50.946;14.610;2022-10-16T03:14:32;15.13;;;10.70;;
4198;SDS011;2113;50.946;14.610;2022-10-16T03:17:01;16.05;;;12.30;;
4198;SDS011;2113;50.946;14.610;2022-10-16T03:19:31;15.65;;;11.77;;
4198;SDS011;2113;50.946;14.610;2022-10-16T03:21:59;13.93;;;10.25;;
4198;SDS011;2113;50.946;14.610;2022-10-16T03:24:27;15.20;;;11.55;;
4198;SDS011;2113;50.946;14.610;2022-10-16T03:26:56;17.25;;;11.88;;
4198;SDS011;2113;50.946;14.610;2022-10-16T03:29:24;15.88;;;10.80;;
4198;SDS011;2113;50.946;14.610;2022-10-16T03:31:54;13.70;;;10.40;;
4198;SDS011;2113;50.946;14.610;2022-10-16T03:34:23;13.70;;;11.02;;
4198;SDS011;2113;50.946;14.610;2022-10-16T03:36:52;17.52;;;12.30;;
4198;SDS011;2113;50.946;14.610;2022-10-16T03:39:21;14.50;;;10.80;;
4198;SDS011;2113;50.946;14.610;2022-10-16T03:41:49;16.17;;;10.88;;
4198;SDS011;2113;50.946;14.610;2022-10-16T03:44:19;12.38;;;10.57;;
4198;SDS011;2113;50.946;14.610;2022-10-16T03:46:48;11.38;;;9.95;;
4198;SDS011;2113;50.946;14.610;2022-10-16T03:49:16;13.82;;;11.07;;
4198;SDS011;2113;50.946;14.610;2022-10-16T03:51:44;13.68;;;10.05;;
4198;SDS011;2113;50.946;14.610;2022-10-16T03:54:14;17.17;;;11.85;;
4198;SDS011;2113;50.946;14.610;2022-10-16T03:56:43;12.40;;;9.85;;
4198;SDS011;2113;50.946;14.610;2022-10-16T03:59:11;11.73;;;9.80;;
4198;SDS011;2113;50.946;14.610;2022-10-16T04:01:39;14.65;;;11.05;;
4198;SDS011;2113;50.946;14.610;2022-10-16T04:04:08;12.23;;;9.05;;
4198;SDS011;2113;50.946;14.610;2022-10-16T04:06:36;12.45;;;9.05;;
4198;SDS011;2113;50.946;14.610;2022-10-16T04:09:05;11.65;;;9.52;;
4198;SDS011;2113;50.946;14.610;2022-10-16T04:11:34;13.10;;;9.23;;
4198;SDS011;2113;50.946;14.610;2022-10-16T04:14:03;12.30;;;9.55;;
4198;SDS011;2113;50.946;14.610;2022-10-16T04:16:31;11.98;;;8.95;;
4198;SDS011;2113;50.946;14.610;2022-10-16T04:19:00;11.60;;;8.32;;
4198;SDS011;2113;50.946;14.610;2022-10-16T04:21:28;23.23;;;9.35;;
4198;SDS011;2113;50.946;14.610;2022-10-16T04:23:57;12.70;;;8.90;;
4198;SDS011;2113;50.946;14.610;2022-10-16T04:26:25;11.13;;;8.45;;
4198;SDS011;2113;50.946;14.610;2022-10-16T04:28:55;9.32;;;8.40;;
4198;SDS011;2113;50.946;14.610;2022-10-16T04:31:24;15.07;;;8.15;;
4198;SDS011;2113;50.946;14.610;2022-10-16T04:33:53;15.30;;;8.80;;
4198;SDS011;2113;50.946;14.610;2022-10-16T04:36:22;13.80;;;10.50;;
4198;SDS011;2113;50.946;14.610;2022-10-16T04:38:54;13.07;;;10.48;;
4198;SDS011;2113;50.946;14.610;2022-10-16T04:41:23;13.27;;;10.25;;
4198;SDS011;2113;50.946;14.610;2022-10-16T04:43:51;12.73;;;10.32;;
4198;SDS011;2113;50.946;14.610;2022-10-16T04:46:21;12.60;;;10.02;;
4198;SDS011;2113;50.946;14.610;2022-10-16T04:48:49;14.23;;;10.93;;
4198;SDS011;2113;50.946;14.610;2022-10-16T04:51:17;13.13;;;10.27;;
4198;SDS011;2113;50.946;14.610;2022-10-16T04:53:47;14.00;;;10.40;;
4198;SDS011;2113;50.946;14.610;2022-10-16T04:56:17;13.10;;;10.63;;
4198;SDS011;2113;50.946;14.610;2022-10-16T04:58:46;14.60;;;10.75;;
4198;SDS011;2113;50.946;14.610;2022-10-16T05:01:15;15.05;;;11.93;;
4198;SDS011;2113;50.946;14.610;2022-10-16T05:03:44;15.07;;;12.10;;
4198;SDS011;2113;50.946;14.610;2022-10-16T05:06:13;14.95;;;11.68;;
4198;SDS011;2113;50.946;14.610;2022-10-16T05:08:42;18.83;;;12.50;;
4198;SDS011;2113;50.946;14.610;2022-10-16T05:11:10;16.85;;;13.45;;
4198;SDS011;2113;50.946;14.610;2022-10-16T05:13:39;17.83;;;14.10;;
4198;SDS011;2113;50.946;14.610;2022-10-16T05:16:08;19.42;;;15.15;;
4198;SDS011;2113;50.946;14.610;2022-10-16T05:18:36;21.77;;;16.48;;
4198;SDS011;2113;50.946;14.610;2022-10-16T05:21:06;21.95;;;17.00;;
4198;SDS011;2113;50.946;14.610;2022-10-16T05:23:34;19.50;;;15.02;;
4198;SDS011;2113;50.946;14.610;2022-10-16T05:26:03;22.08;;;16.83;;
4198;SDS011;2113;50.946;14.610;2022-10-16T05:28:31;24.52;;;17.17;;
4198;SDS011;2113;50.946;14.610;2022-10-16T05:31:04;22.60;;;17.55;;
4198;SDS011;2113;50.946;14.610;2022-10-16T05:33:33;25.58;;;18.67;;
4198;SDS011;2113;50.946;14.610;2022-10-16T05:36:02;26.20;;;18.80;;
4198;SDS011;2113;50.946;14.610;2022-10-16T05:38:32;23.98;;;17.88;;
4198;SDS011;2113;50.946;14.610;2022-10-16T05:41:00;25.70;;;18.95;;
4198;SDS011;2113;50.946;14.610;2022-10-16T05:43:30;25.75;;;18.83;;
4198;SDS011;2113;50.946;14.610;2022-10-16T05:46:01;25.67;;;17.17;;
4198;SDS011;2113;50.946;14.610;2022-10-16T05:48:31;28.42;;;18.88;;
4198;SDS011;2113;50.946;14.610;2022-10-16T05:51:00;24.67;;;18.88;;
4198;SDS011;2113;50.946;14.610;2022-10-16T05:53:33;28.55;;;20.27;;
4198;SDS011;2113;50.946;14.610;2022-10-16T05:56:02;32.75;;;20.45;;
4198;SDS011;2113;50.946;14.610;2022-10-16T05:58:32;28.30;;;19.80;;
4198;SDS011;2113;50.946;14.610;2022-10-16T06:01:03;26.67;;;19.27;;
4198;SDS011;2113;50.946;14.610;2022-10-16T06:03:33;32.17;;;18.88;;
4198;SDS011;2113;50.946;14.610;2022-10-16T06:06:07;29.65;;;20.83;;
4198;SDS011;2113;50.946;14.610;2022-10-16T06:08:40;25.98;;;18.65;;
4198;SDS011;2113;50.946;14.610;2022-10-16T06:11:10;24.02;;;18.50;;
4198;SDS011;2113;50.946;14.610;2022-10-16T06:13:40;24.98;;;18.02;;
4198;SDS011;2113;50.946;14.610;2022-10-16T06:16:10;24.35;;;18.48;;
4198;SDS011;2113;50.946;14.610;2022-10-16T06:18:39;23.75;;;17.83;;
4198;SDS011;2113;50.946;14.610;2022-10-16T06:21:08;27.75;;;18.80;;
4198;SDS011;2113;50.946;14.610;2022-10-16T06:23:37;24.98;;;18.95;;
4198;SDS011;2113;50.946;14.610;2022-10-16T06:26:08;26.27;;;19.92;;
4198;SDS011;2113;50.946;14.610;2022-10-16T06:28:38;24.10;;;16.92;;
4198;SDS011;2113;50.946;14.610;2022-10-16T06:31:07;23.35;;;17.75;;
4198;SDS011;2113;50.946;14.610;2022-10-16T06:33:37;26.20;;;18.40;;
4198;SDS011;2113;50.946;14.610;2022-10-16T06:36:06;24.95;;;18.50;;
4198;SDS011;2113;50.946;14.610;2022-10-16T06:38:37;23.35;;;17.90;;
4198;SDS011;2113;50.946;14.610;2022-10-16T06:41:06;21.90;;;16.83;;
4198;SDS011;2113;50.946;14.610;2022-10-16T06:43:37;22.08;;;17.02;;
4198;SDS011;2113;50.946;14.610;2022-10-16T06:46:07;20.98;;;15.85;;
4198;SDS011;2113;50.946;14.610;2022-10-16T06:48:37;21.75;;;15.38;;
4198;SDS011;2113;50.946;14.610;2022-10-16T06:51:06;19.23;;;15.80;;
4198;SDS011;2113;50.946;14.610;2022-10-16T06:53:39;19.27;;;15.43;;
4198;SDS011;2113;50.946;14.610;2022-10-16T06:56:30;19.83;;;13.88;;
4198;SDS011;2113;50.946;14.610;2022-10-16T06:59:00;18.65;;;14.98;;
4198;SDS011;2113;50.946;14.610;2022-10-16T07:01:29;20.38;;;15.63;;
4198;SDS011;2113;50.946;14.610;2022-10-16T07:03:58;29.92;;;18.00;;
4198;SDS011;2113;50.946;14.610;2022-10-16T07:06:30;19.67;;;15.05;;
4198;SDS011;2113;50.946;14.610;2022-10-16T07:09:02;13.10;;;11.80;;
4198;SDS011;2113;50.946;14.610;2022-10-16T07:11:34;11.95;;;10.50;;
4198;SDS011;2113;50.946;14.610;2022-10-16T07:14:04;8.82;;;7.93;;
4198;SDS011;2113;50.946;14.610;2022-10-16T07:16:33;8.63;;;7.78;;
4198;SDS011;2113;50.946;14.610;2022-10-16T07:19:01;11.52;;;7.85;;
4198;SDS011;2113;50.946;14.610;2022-10-16T07:21:31;7.72;;;6.90;;
4198;SDS011;2113;50.946;14.610;2022-10-16T07:24:03;7.75;;;7.05;;
4198;SDS011;2113;50.946;14.610;2022-10-16T07:26:35;7.20;;;6.50;;
4198;SDS011;2113;50.946;14.610;2022-10-16T07:29:06;7.55;;;5.63;;
4198;SDS011;2113;50.946;14.610;2022-10-16T07:31:35;6.53;;;6.00;;
4198;SDS011;2113;50.946;14.610;2022-10-16T07:34:05;7.55;;;6.85;;
4198;SDS011;2113;50.946;14.610;2022-10-16T07:36:34;7.18;;;6.40;;
4198;SDS011;2113;50.946;14.610;2022-10-16T07:39:02;6.72;;;6.07;;
4198;SDS011;2113;50.946;14.610;2022-10-16T07:41:31;6.25;;;5.57;;
4198;SDS011;2113;50.946;14.610;2022-10-16T07:44:04;6.10;;;4.53;;
4198;SDS011;2113;50.946;14.610;2022-10-16T07:46:33;8.75;;;4.43;;
4198;SDS011;2113;50.946;14.610;2022-10-16T07:49:02;8.38;;;4.65;;
4198;SDS011;2113;50.946;14.610;2022-10-16T07:51:31;5.72;;;4.18;;
4198;SDS011;2113;50.946;14.610;2022-10-16T07:53:59;5.30;;;4.30;;
4198;SDS011;2113;50.946;14.610;2022-10-16T07:56:30;3.70;;;3.25;;
4198;SDS011;2113;50.946;14.610;2022-10-16T07:58:58;4.85;;;4.10;;
4198;SDS011;2113;50.946;14.610;2022-10-16T08:01:29;8.85;;;4.47;;
4198;SDS011;2113;50.946;14.610;2022-10-16T08:03:57;5.03;;;4.00;;
4198;SDS011;2113;50.946;14.610;2022-10-16T08:06:26;4.80;;;3.95;;
4198;SDS011;2113;50.946;14.610;2022-10-16T08:08:54;5.70;;;4.50;;
4198;SDS011;2113;50.946;14.610;2022-10-16T08:11:23;4.90;;;4.20;;
4198;SDS011;2113;50.946;14.610;2022-10-16T08:13:51;4.15;;;3.65;;
4198;SDS011;2113;50.946;14.610;2022-10-16T08:16:19;3.80;;;3.40;;
4198;SDS011;2113;50.946;14.610;2022-10-16T08:18:50;6.00;;;4.57;;
4198;SDS011;2113;50.946;14.610;2022-10-16T08:21:19;5.22;;;3.92;;
4198;SDS011;2113;50.946;14.610;2022-10-16T08:23:49;5.03;;;4.00;;
4198;SDS011;2113;50.946;14.610;2022-10-16T08:26:23;6.85;;;5.28;;
4198;SDS011;2113;50.946;14.610;2022-10-16T08:28:53;6.38;;;5.30;;
4198;SDS011;2113;50.946;14.610;2022-10-16T08:31:23;3.88;;;2.97;;
4198;SDS011;2113;50.946;14.610;2022-10-16T08:33:54;6.18;;;3.10;;
4198;SDS011;2113;50.946;14.610;2022-10-16T08:36:22;4.05;;;3.20;;
4198;SDS011;2113;50.946;14.610;2022-10-16T08:38:51;4.47;;;3.35;;
4198;SDS011;2113;50.946;14.610;2022-10-16T08:41:28;4.40;;;4.00;;
4198;SDS011;2113;50.946;14.610;2022-10-16T08:44:27;3.80;;;3.25;;
4198;SDS011;2113;50.946;14.610;2022-10-16T08:47:13;4.10;;;3.70;;
4198;SDS011;2113;50.946;14.610;2022-10-16T08:49:50;5.43;;;4.05;;
4198;SDS011;2113;50.946;14.610;2022-10-16T08:52:25;7.00;;;6.22;;
4198;SDS011;2113;50.946;14.610;2022-10-16T08:54:58;6.68;;;5.97;;
4198;SDS011;2113;50.946;14.610;2022-10-16T09:00:12;4.88;;;4.10;;
4198;SDS011;2113;50.946;14.610;2022-10-16T09:02:44;5.18;;;3.60;;
4198;SDS011;2113;50.946;14.610;2022-10-16T09:05:20;3.92;;;3.40;;
4198;SDS011;2113;50.946;14.610;2022-10-16T09:07:59;3.58;;;3.15;;
4198;SDS011;2113;50.946;14.610;2022-10-16T09:10:42;4.65;;;3.00;;
4198;SDS011;2113;50.946;14.610;2022-10-16T09:13:21;3.55;;;3.15;;
4198;SDS011;2113;50.946;14.610;2022-10-16T09:15:55;4.82;;;3.20;;
4198;SDS011;2113;50.946;14.610;2022-10-16T09:18:33;4.00;;;3.58;;
4198;SDS011;2113;50.946;14.610;2022-10-16T09:21:12;4.28;;;3.60;;
4198;SDS011;2113;50.946;14.610;2022-10-16T09:23:44;7.93;;;4.05;;
4198;SDS011;2113;50.946;14.610;2022-10-16T09:26:13;4.95;;;4.20;;
4198;SDS011;2113;50.946;14.610;2022-10-16T09:28:44;4.00;;;3.30;;
4198;SDS011;2113;50.946;14.610;2022-10-16T09:31:17;4.30;;;3.67;;
4198;SDS011;2113;50.946;14.610;2022-10-16T09:33:48;4.90;;;4.40;;
4198;SDS011;2113;50.946;14.610;2022-10-16T09:36:21;5.35;;;4.85;;
4198;SDS011;2113;50.946;14.610;2022-10-16T09:39:01;6.47;;;5.05;;
4198;SDS011;2113;50.946;14.610;2022-10-16T09:41:36;7.18;;;5.93;;
4198;SDS011;2113;50.946;14.610;2022-10-16T09:44:15;7.22;;;5.80;;
4198;SDS011;2113;50.946;14.610;2022-10-16T09:46:47;6.05;;;5.43;;
4198;SDS011;2113;50.946;14.610;2022-10-16T09:49:20;9.13;;;5.13;;
4198;SDS011;2113;50.946;14.610;2022-10-16T09:52:02;5.90;;;5.03;;
4198;SDS011;2113;50.946;14.610;2022-10-16T09:54:31;6.32;;;5.18;;
4198;SDS011;2113;50.946;14.610;2022-10-16T09:57:04;7.28;;;4.40;;
4198;SDS011;2113;50.946;14.610;2022-10-16T09:59:33;5.07;;;4.55;;
4198;SDS011;2113;50.946;14.610;2022-10-16T10:02:03;4.80;;;4.15;;
4198;SDS011;2113;50.946;14.610;2022-10-16T10:04:40;4.80;;;4.40;;
4198;SDS011;2113;50.946;14.610;2022-10-16T10:07:20;6.57;;;5.70;;
4198;SDS011;2113;50.946;14.610;2022-10-16T10:09:53;9.13;;;5.43;;
4198;SDS011;2113;50.946;14.610;2022-10-16T10:12:24;5.20;;;4.70;;
4198;SDS011;2113;50.946;14.610;2022-10-16T10:14:56;5.63;;;4.80;;
4198;SDS011;2113;50.946;14.610;2022-10-16T10:17:26;19.27;;;10.27;;
4198;SDS011;2113;50.946;14.610;2022-10-16T10:19:56;14.13;;;5.50;;
4198;SDS011;2113;50.946;14.610;2022-10-16T10:22:38;6.32;;;4.80;;
4198;SDS011;2113;50.946;14.610;2022-10-16T10:25:15;5.43;;;4.28;;
4198;SDS011;2113;50.946;14.610;2022-10-16T10:27:56;7.95;;;3.85;;
4198;SDS011;2113;50.946;14.610;2022-10-16T10:30:36;4.32;;;3.80;;
4198;SDS011;2113;50.946;14.610;2022-10-16T10:33:11;5.38;;;4.07;;
4198;SDS011;2113;50.946;14.610;2022-10-16T10:35:50;5.05;;;3.80;;
4198;SDS011;2113;50.946;14.610;2022-10-16T10:38:29;6.50;;;4.30;;
4198;SDS011;2113;50.946;14.610;2022-10-16T10:41:17;6.55;;;3.83;;
4198;SDS011;2113;50.946;14.610;2022-10-16T10:44:00;12.23;;;4.45;;
4198;SDS011;2113;50.946;14.610;2022-10-16T10:46:35;4.68;;;4.22;;
4198;SDS011;2113;50.946;14.610;2022-10-16T10:52:53;6.78;;;3.20;;
4198;SDS011;2113;50.946;14.610;2022-10-16T10:55:31;4.68;;;3.03;;
4198;SDS011;2113;50.946;14.610;2022-10-16T11:01:05;3.90;;;2.72;;
4198;SDS011;2113;50.946;14.610;2022-10-16T11:03:42;3.05;;;2.50;;
4198;SDS011;2113;50.946;14.610;2022-10-16T11:06:24;5.60;;;2.95;;
4198;SDS011;2113;50.946;14.610;2022-10-16T11:08:59;5.00;;;3.13;;
4198;SDS011;2113;50.946;14.610;2022-10-16T11:11:38;3.95;;;3.10;;
4198;SDS011;2113;50.946;14.610;2022-10-16T11:14:13;3.47;;;3.10;;
4198;SDS011;2113;50.946;14.610;2022-10-16T11:16:46;6.38;;;3.30;;
4198;SDS011;2113;50.946;14.610;2022-10-16T11:19:24;4.53;;;3.33;;
4198;SDS011;2113;50.946;14.610;2022-10-16T11:22:01;5.63;;;3.90;;
4198;SDS011;2113;50.946;14.610;2022-10-16T11:24:35;7.35;;;3.50;;
4198;SDS011;2113;50.946;14.610;2022-10-16T11:27:18;4.95;;;3.17;;
4198;SDS011;2113;50.946;14.610;2022-10-16T11:29:58;7.00;;;3.20;;
4198;SDS011;2113;50.946;14.610;2022-10-16T11:33:10;4.05;;;3.25;;
4198;SDS011;2113;50.946;14.610;2022-10-16T11:36:11;3.40;;;3.05;;
4198;SDS011;2113;50.946;14.610;2022-10-16T11:38:58;5.43;;;3.33;;
4198;SDS011;2113;50.946;14.610;2022-10-16T11:41:41;4.93;;;3.75;;
4198;SDS011;2113;50.946;14.610;2022-10-16T11:44:31;4.38;;;3.28;;
4198;SDS011;2113;50.946;14.610;2022-10-16T11:47:16;6.20;;;3.08;;
4198;SDS011;2113;50.946;14.610;2022-10-16T11:50:26;3.85;;;2.90;;
4198;SDS011;2113;50.946;14.610;2022-10-16T11:53:09;8.25;;;3.50;;
4198;SDS011;2113;50.946;14.610;2022-10-16T11:55:51;6.00;;;3.45;;
4198;SDS011;2113;50.946;14.610;2022-10-16T11:58:25;3.00;;;2.60;;
4198;SDS011;2113;50.946;14.610;2022-10-16T12:01:10;8.60;;;3.30;;
4198;SDS011;2113;50.946;14.610;2022-10-16T12:03:56;5.28;;;2.88;;
4198;SDS011;2113;50.946;14.610;2022-10-16T12:06:57;4.18;;;3.70;;
4198;SDS011;2113;50.946;14.610;2022-10-16T12:09:38;4.70;;;2.50;;
4198;SDS011;2113;50.946;14.610;2022-10-16T12:12:25;3.30;;;2.70;;
4198;SDS011;2113;50.946;14.610;2022-10-16T12:15:18;3.10;;;2.72;;
4198;SDS011;2113;50.946;14.610;2022-10-16T12:18:26;3.70;;;3.20;;
4198;SDS011;2113;50.946;14.610;2022-10-16T12:21:00;4.60;;;2.65;;
4198;SDS011;2113;50.946;14.610;2022-10-16T12:23:36;4.03;;;2.85;;
4198;SDS011;2113;50.946;14.610;2022-10-16T12:26:12;6.68;;;3.83;;
4198;SDS011;2113;50.946;14.610;2022-10-16T12:29:11;4.65;;;2.70;;
4198;SDS011;2113;50.946;14.610;2022-10-16T12:31:45;3.70;;;2.83;;
4198;SDS011;2113;50.946;14.610;2022-10-16T12:34:32;4.32;;;2.95;;
4198;SDS011;2113;50.946;14.610;2022-10-16T12:37:14;4.43;;;2.67;;
4198;SDS011;2113;50.946;14.610;2022-10-16T12:39:53;7.43;;;2.70;;
4198;SDS011;2113;50.946;14.610;2022-10-16T12:42:33;4.15;;;2.78;;
4198;SDS011;2113;50.946;14.610;2022-10-16T12:48:04;11.43;;;3.20;;
4198;SDS011;2113;50.946;14.610;2022-10-16T12:51:21;6.03;;;2.65;;
4198;SDS011;2113;50.946;14.610;2022-10-16T12:54:01;2.60;;;2.30;;
4198;SDS011;2113;50.946;14.610;2022-10-16T12:56:41;5.38;;;2.70;;
4198;SDS011;2113;50.946;14.610;2022-10-16T12:59:22;4.20;;;2.55;;
4198;SDS011;2113;50.946;14.610;2022-10-16T13:02:32;7.45;;;2.25;;
4198;SDS011;2113;50.946;14.610;2022-10-16T13:05:28;2.95;;;2.10;;
4198;SDS011;2113;50.946;14.610;2022-10-16T13:08:24;6.55;;;2.40;;
4198;SDS011;2113;50.946;14.610;2022-10-16T13:11:16;3.03;;;2.00;;
4198;SDS011;2113;50.946;14.610;2022-10-16T13:14:03;6.22;;;2.50;;
4198;SDS011;2113;50.946;14.610;2022-10-16T13:16:52;4.15;;;2.40;;
4198;SDS011;2113;50.946;14.610;2022-10-16T13:19:38;2.60;;;2.13;;
4198;SDS011;2113;50.946;14.610;2022-10-16T13:22:27;4.38;;;2.90;;
4198;SDS011;2113;50.946;14.610;2022-10-16T13:25:14;2.72;;;1.98;;
4198;SDS011;2113;50.946;14.610;2022-10-16T13:28:00;5.45;;;2.65;;
4198;SDS011;2113;50.946;14.610;2022-10-16T13:30:33;3.38;;;2.20;;
4198;SDS011;2113;50.946;14.610;2022-10-16T13:33:14;3.38;;;2.15;;
4198;SDS011;2113;50.946;14.610;2022-10-16T13:35:53;4.05;;;2.10;;
4198;SDS011;2113;50.946;14.610;2022-10-16T13:38:35;4.75;;;2.17;;
4198;SDS011;2113;50.946;14.610;2022-10-16T13:41:14;3.28;;;2.35;;
4198;SDS011;2113;50.946;14.610;2022-10-16T13:43:48;3.88;;;2.22;;
4198;SDS011;2113;50.946;14.610;2022-10-16T13:46:25;4.85;;;2.47;;
4198;SDS011;2113;50.946;14.610;2022-10-16T13:49:03;2.92;;;2.40;;
4198;SDS011;2113;50.946;14.610;2022-10-16T13:51:54;3.08;;;2.25;;
4198;SDS011;2113;50.946;14.610;2022-10-16T13:54:31;11.23;;;2.70;;
4198;SDS011;2113;50.946;14.610;2022-10-16T13:57:11;3.50;;;2.70;;
4198;SDS011;2113;50.946;14.610;2022-10-16T13:59:54;6.55;;;2.67;;
4198;SDS011;2113;50.946;14.610;2022-10-16T14:02:28;4.05;;;2.50;;
4198;SDS011;2113;50.946;14.610;2022-10-16T14:05:08;3.65;;;2.50;;
4198;SDS011;2113;50.946;14.610;2022-10-16T14:07:42;7.55;;;2.70;;
4198;SDS011;2113;50.946;14.610;2022-10-16T14:10:20;5.90;;;1.90;;
4198;SDS011;2113;50.946;14.610;2022-10-16T14:12:59;3.95;;;2.40;;
4198;SDS011;2113;50.946;14.610;2022-10-16T14:15:37;4.35;;;2.40;;
4198;SDS011;2113;50.946;14.610;2022-10-16T14:18:13;3.58;;;2.45;;
4198;SDS011;2113;50.946;14.610;2022-10-16T14:20:51;2.80;;;2.10;;
4198;SDS011;2113;50.946;14.610;2022-10-16T14:23:31;3.95;;;2.70;;
4198;SDS011;2113;50.946;14.610;2022-10-16T14:26:41;6.47;;;2.60;;
4198;SDS011;2113;50.946;14.610;2022-10-16T14:29:19;2.80;;;2.10;;
4198;SDS011;2113;50.946;14.610;2022-10-16T14:31:55;4.45;;;2.33;;
4198;SDS011;2113;50.946;14.610;2022-10-16T14:34:39;7.65;;;1.98;;
4198;SDS011;2113;50.946;14.610;2022-10-16T14:37:30;3.25;;;2.10;;
4198;SDS011;2113;50.946;14.610;2022-10-16T14:40:11;2.70;;;1.92;;
4198;SDS011;2113;50.946;14.610;2022-10-16T14:42:49;2.60;;;1.80;;
4198;SDS011;2113;50.946;14.610;2022-10-16T14:45:29;3.15;;;2.10;;
4198;SDS011;2113;50.946;14.610;2022-10-16T14:48:02;3.60;;;2.38;;
4198;SDS011;2113;50.946;14.610;2022-10-16T14:50:49;2.67;;;1.80;;
4198;SDS011;2113;50.946;14.610;2022-10-16T14:53:23;4.85;;;2.35;;
4198;SDS011;2113;50.946;14.610;2022-10-16T14:55:55;2.67;;;1.77;;
4198;SDS011;2113;50.946;14.610;2022-10-16T14:58:32;4.95;;;2.35;;
4198;SDS011;2113;50.946;14.610;2022-10-16T15:01:09;4.97;;;3.25;;
4198;SDS011;2113;50.946;14.610;2022-10-16T15:03:41;5.13;;;2.35;;
4198;SDS011;2113;50.946;14.610;2022-10-16T15:06:17;6.10;;;3.47;;
4198;SDS011;2113;50.946;14.610;2022-10-16T15:08:54;6.55;;;3.75;;
4198;SDS011;2113;50.946;14.610;2022-10-16T15:11:32;5.68;;;3.35;;
4198;SDS011;2113;50.946;14.610;2022-10-16T15:14:11;6.43;;;2.75;;
4198;SDS011;2113;50.946;14.610;2022-10-16T15:16:50;4.05;;;3.15;;
4198;SDS011;2113;50.946;14.610;2022-10-16T15:19:30;6.35;;;3.97;;
4198;SDS011;2113;50.946;14.610;2022-10-16T15:22:09;7.97;;;3.60;;
4198;SDS011;2113;50.946;14.610;2022-10-16T15:24:44;6.38;;;4.05;;
4198;SDS011;2113;50.946;14.610;2022-10-16T15:27:14;9.10;;;3.65;;
4198;SDS011;2113;50.946;14.610;2022-10-16T15:29:43;5.57;;;3.20;;
4198;SDS011;2113;50.946;14.610;2022-10-16T15:32:13;4.65;;;3.30;;
4198;SDS011;2113;50.946;14.610;2022-10-16T15:34:42;4.95;;;3.00;;
4198;SDS011;2113;50.946;14.610;2022-10-16T15:37:11;5.35;;;3.08;;
4198;SDS011;2113;50.946;14.610;2022-10-16T15:39:40;3.95;;;3.13;;
4198;SDS011;2113;50.946;14.610;2022-10-16T15:42:09;4.57;;;2.30;;
4198;SDS011;2113;50.946;14.610;2022-10-16T15:44:37;5.18;;;2.85;;
4198;SDS011;2113;50.946;14.610;2022-10-16T15:47:06;5.68;;;2.67;;
4198;SDS011;2113;50.946;14.610;2022-10-16T15:49:37;8.35;;;2.80;;